createdAt,value
2022-12-23T00:00:28.710Z,8.42
2022-12-23T00:02:55.613Z,8.38
2022-12-23T00:05:22.514Z,8.41
2022-12-23T00:07:49.205Z,8.40
2022-12-23T00:10:16.148Z,8.43
2022-12-23T00:13:01.736Z,8.45
2022-12-23T00:15:28.410Z,8.47
2022-12-23T00:17:55.030Z,8.46
2022-12-23T00:20:22.042Z,8.44
2022-12-23T00:23:06.925Z,8.45
2022-12-23T00:25:42.100Z,8.41
2022-12-23T00:28:16.648Z,8.45
2022-12-23T00:30:58.710Z,8.41
2022-12-23T00:33:29.186Z,8.42
2022-12-23T00:35:56.849Z,8.46
2022-12-23T00:38:43.700Z,8.50
2022-12-23T00:41:36.085Z,8.48
2022-12-23T00:44:03.874Z,8.44
2022-12-23T00:46:31.198Z,8.47
2022-12-23T00:49:17.034Z,8.45
2022-12-23T00:51:43.749Z,8.42
2022-12-23T00:54:10.619Z,8.44
2022-12-23T00:56:37.336Z,8.42
2022-12-23T00:59:04.212Z,8.46
2022-12-23T01:01:49.725Z,8.45
2022-12-23T01:04:36.499Z,8.47
2022-12-23T01:07:04.209Z,8.49
2022-12-23T01:09:31.090Z,8.47
2022-12-23T01:11:57.779Z,8.53
2022-12-23T01:14:24.916Z,8.58
2022-12-23T01:16:51.772Z,8.60
2022-12-23T01:19:19.569Z,8.59
2022-12-23T01:21:51.820Z,8.60
2022-12-23T01:24:44.504Z,8.60
2022-12-23T01:27:17.933Z,8.64
2022-12-23T01:30:15.095Z,8.65
2022-12-23T01:33:07.042Z,8.60
2022-12-23T01:35:33.713Z,8.67
2022-12-23T01:38:00.398Z,8.65
2022-12-23T01:40:27.112Z,8.64
2022-12-23T01:42:53.912Z,8.64
2022-12-23T01:45:32.801Z,8.68
2022-12-23T01:48:22.789Z,8.67
2022-12-23T01:50:55.534Z,8.65
2022-12-23T01:53:28.959Z,8.72
2022-12-23T01:56:20.303Z,8.73
2022-12-23T01:58:57.395Z,8.71
2022-12-23T02:01:44.724Z,8.72
2022-12-23T02:04:18.768Z,8.79
2022-12-23T02:07:06.957Z,8.75
2022-12-23T02:09:39.367Z,8.72
2022-12-23T02:12:24.913Z,8.75
2022-12-23T02:15:27.306Z,8.72
2022-12-23T02:18:24.119Z,8.70
2022-12-23T02:21:21.757Z,8.71
2022-12-23T02:24:48.234Z,8.67
2022-12-23T02:27:50.394Z,8.73
2022-12-23T02:30:32.409Z,8.70
2022-12-23T02:33:17.090Z,8.67
2022-12-23T02:36:22.460Z,8.67
2022-12-23T02:39:06.074Z,8.69
2022-12-23T02:41:42.508Z,8.72
2022-12-23T02:44:44.148Z,8.73
2022-12-23T02:47:20.287Z,8.74
2022-12-23T02:50:03.482Z,8.76
2022-12-23T02:52:34.312Z,8.78
2022-12-23T02:55:10.038Z,8.79
2022-12-23T02:57:42.866Z,8.82
2022-12-23T03:00:10.718Z,8.80
2022-12-23T03:02:40.822Z,8.80
2022-12-23T03:05:35.054Z,8.80
2022-12-23T03:08:05.582Z,8.77
2022-12-23T03:11:10.842Z,8.77
2022-12-23T03:14:24.457Z,8.77
2022-12-23T03:17:00.842Z,8.77
2022-12-23T03:19:39.640Z,8.76
2022-12-23T03:22:09.802Z,8.80
2022-12-23T03:24:45.102Z,8.85
2022-12-23T03:27:28.006Z,8.87
2022-12-23T03:30:02.411Z,8.86
2022-12-23T03:32:33.709Z,8.81
2022-12-23T03:35:03.374Z,8.74
2022-12-23T03:37:34.307Z,8.71
2022-12-23T03:40:31.899Z,8.76
2022-12-23T03:43:06.843Z,8.78
2022-12-23T03:45:42.199Z,8.81
2022-12-23T03:48:24.187Z,8.77
2022-12-23T03:50:57.273Z,8.79
2022-12-23T03:53:34.461Z,8.80
2022-12-23T03:56:10.853Z,8.81
2022-12-23T03:59:00.043Z,8.80
2022-12-23T04:01:54.485Z,8.80
2022-12-23T04:04:32.431Z,8.76
2022-12-23T04:07:13.821Z,8.73
2022-12-23T04:09:41.306Z,8.79
2022-12-23T04:12:08.638Z,8.73
2022-12-23T04:14:45.738Z,8.75
2022-12-23T04:17:12.606Z,8.74
2022-12-23T04:19:39.329Z,8.71
2022-12-23T04:22:05.967Z,8.67
2022-12-23T04:24:32.595Z,8.64
2022-12-23T04:26:59.260Z,8.63
2022-12-23T04:29:25.892Z,8.63
2022-12-23T04:31:53.036Z,8.63
2022-12-23T04:34:20.149Z,8.62
2022-12-23T04:36:57.692Z,8.61
2022-12-23T04:39:24.342Z,8.60
2022-12-23T04:41:55.519Z,8.60
2022-12-23T04:44:25.621Z,8.57
2022-12-23T04:46:53.272Z,8.56
2022-12-23T04:49:19.943Z,8.56
2022-12-23T04:51:46.609Z,8.56
2022-12-23T04:54:13.432Z,8.57
2022-12-23T04:56:40.157Z,8.57
2022-12-23T04:59:06.812Z,8.59
2022-12-23T05:01:33.688Z,8.60
2022-12-23T05:04:01.039Z,8.63
2022-12-23T05:06:43.996Z,8.63
2022-12-23T05:09:14.227Z,8.68
2022-12-23T05:11:42.563Z,8.69
2022-12-23T05:14:11.084Z,8.70
2022-12-23T05:16:38.445Z,8.65
2022-12-23T05:19:05.171Z,8.61
2022-12-23T05:21:32.919Z,8.65
2022-12-23T05:23:59.573Z,8.64
2022-12-23T05:26:26.340Z,8.63
2022-12-23T05:28:53.010Z,8.59
2022-12-23T05:31:19.797Z,8.61
2022-12-23T05:33:46.632Z,8.61
2022-12-23T05:36:13.588Z,8.62
2022-12-23T05:38:40.290Z,8.59
2022-12-23T05:41:07.503Z,8.59
2022-12-23T05:43:34.336Z,8.61
2022-12-23T05:46:01.103Z,8.61
2022-12-23T05:48:27.786Z,8.60
2022-12-23T05:50:54.521Z,8.59
2022-12-23T05:53:21.928Z,8.60
2022-12-23T05:55:48.721Z,8.60
2022-12-23T05:58:15.499Z,8.61
2022-12-23T06:00:42.486Z,8.59
2022-12-23T06:03:09.389Z,8.59
2022-12-23T06:05:38.972Z,8.64
2022-12-23T06:08:05.934Z,8.64
2022-12-23T06:10:33.116Z,8.64
2022-12-23T06:12:59.735Z,8.63
2022-12-23T06:15:27.306Z,8.64
2022-12-23T06:17:55.944Z,8.67
2022-12-23T06:20:22.722Z,8.61
2022-12-23T06:22:49.357Z,8.60
2022-12-23T06:25:16.458Z,8.59
2022-12-23T06:27:43.167Z,8.61
2022-12-23T06:30:10.476Z,8.62
2022-12-23T06:32:38.763Z,8.59
2022-12-23T06:35:09.641Z,8.60
2022-12-23T06:37:36.392Z,8.58
2022-12-23T06:40:03.818Z,8.58
2022-12-23T06:42:30.522Z,8.55
2022-12-23T06:44:57.230Z,8.52
2022-12-23T06:47:24.002Z,8.56
2022-12-23T06:49:50.801Z,8.52
2022-12-23T06:52:17.678Z,8.50
2022-12-23T06:54:44.329Z,8.47
2022-12-23T06:57:11.057Z,8.46
2022-12-23T06:59:37.897Z,8.44
2022-12-23T07:02:12.098Z,8.45
2022-12-23T07:04:39.081Z,8.47
2022-12-23T07:07:24.027Z,8.48
2022-12-23T07:09:50.802Z,8.50
2022-12-23T07:12:19.939Z,8.49
2022-12-23T07:14:46.669Z,8.49
2022-12-23T07:17:13.621Z,8.48
2022-12-23T07:19:43.670Z,8.51
2022-12-23T07:22:10.972Z,8.55
2022-12-23T07:24:37.896Z,8.54
2022-12-23T07:27:05.360Z,8.55
2022-12-23T07:29:32.972Z,8.55
2022-12-23T07:32:04.572Z,8.54
2022-12-23T07:34:31.381Z,8.57
2022-12-23T07:36:58.148Z,8.56
2022-12-23T07:39:25.549Z,8.55
2022-12-23T07:42:16.355Z,8.56
2022-12-23T07:44:40.791Z,8.54
2022-12-23T07:47:07.713Z,8.53
2022-12-23T07:49:34.443Z,8.54
2022-12-23T07:52:02.881Z,8.55
2022-12-23T07:54:30.081Z,8.54
2022-12-23T07:56:58.214Z,8.56
2022-12-23T07:59:27.999Z,8.56
2022-12-23T08:01:54.771Z,8.56
2022-12-23T08:04:21.669Z,8.54
2022-12-23T08:06:48.521Z,8.54
2022-12-23T08:09:15.199Z,8.52
2022-12-23T08:11:41.891Z,8.54
2022-12-23T08:14:09.711Z,8.53
2022-12-23T08:16:43.096Z,8.52
2022-12-23T08:19:10.868Z,8.52
2022-12-23T08:21:37.907Z,8.52
2022-12-23T08:24:05.217Z,8.51
2022-12-23T08:26:33.838Z,8.51
2022-12-23T08:29:01.769Z,8.50
2022-12-23T08:31:33.891Z,8.50
2022-12-23T08:34:01.328Z,8.50
2022-12-23T08:36:34.339Z,8.48
2022-12-23T08:39:08.808Z,8.51
2022-12-23T08:41:44.844Z,8.48
2022-12-23T08:44:12.905Z,8.46
2022-12-23T08:46:40.637Z,8.46
2022-12-23T08:49:09.369Z,8.42
2022-12-23T08:51:50.730Z,8.43
2022-12-23T08:54:22.070Z,8.43
2022-12-23T08:56:51.983Z,8.43
2022-12-23T08:59:20.015Z,8.46
2022-12-23T09:01:47.834Z,8.47
2022-12-23T09:04:14.858Z,8.49
2022-12-23T09:06:42.869Z,8.52
2022-12-23T09:09:13.590Z,8.52
2022-12-23T09:11:40.611Z,8.57
2022-12-23T09:14:10.050Z,8.60
2022-12-23T09:16:37.323Z,8.59
2022-12-23T09:19:04.800Z,8.60
2022-12-23T09:21:31.831Z,8.65
2022-12-23T09:23:58.508Z,8.68
2022-12-23T09:26:28.466Z,8.68
2022-12-23T09:28:56.431Z,8.72
2022-12-23T09:31:23.991Z,8.68
2022-12-23T09:33:53.221Z,8.68
2022-12-23T09:36:22.043Z,8.71
2022-12-23T09:38:55.182Z,8.70
2022-12-23T09:41:49.250Z,8.73
2022-12-23T09:44:55.565Z,8.75
2022-12-23T09:47:25.575Z,8.76
2022-12-23T09:49:58.391Z,8.78
2022-12-23T09:52:43.483Z,8.78
2022-12-23T09:55:12.373Z,8.78
2022-12-23T09:58:03.943Z,8.77
2022-12-23T10:00:39.920Z,8.78
2022-12-23T10:04:20.570Z,8.78
2022-12-23T10:07:04.412Z,8.79
2022-12-23T10:09:33.269Z,8.82
2022-12-23T10:12:01.105Z,8.79
2022-12-23T10:14:33.995Z,8.78
2022-12-23T10:17:08.668Z,8.78
2022-12-23T10:19:47.632Z,8.79
2022-12-23T10:22:27.204Z,8.79
2022-12-23T10:24:56.894Z,8.79
2022-12-23T10:27:36.890Z,8.78
2022-12-23T10:30:57.435Z,8.78
2022-12-23T10:33:23.661Z,8.81
2022-12-23T10:36:20.564Z,8.85
2022-12-23T10:39:05.240Z,8.93
2022-12-23T10:41:48.687Z,8.95
2022-12-23T10:44:43.169Z,8.94
2022-12-23T10:47:25.157Z,8.93
2022-12-23T10:50:36.346Z,8.86
2022-12-23T10:53:10.488Z,8.83
2022-12-23T10:55:38.607Z,8.85
2022-12-23T10:58:15.474Z,8.82
2022-12-23T11:00:50.353Z,8.82
2022-12-23T11:03:24.021Z,8.85
2022-12-23T11:05:52.715Z,8.83
2022-12-23T11:08:22.250Z,8.84
2022-12-23T11:10:49.639Z,8.86
2022-12-23T11:13:33.715Z,8.85
2022-12-23T11:16:17.319Z,8.83
2022-12-23T11:18:56.207Z,8.87
2022-12-23T11:21:23.225Z,8.88
2022-12-23T11:24:16.077Z,8.86
2022-12-23T11:26:45.586Z,8.82
2022-12-23T11:29:24.123Z,8.78
2022-12-23T11:31:51.841Z,8.84
2022-12-23T11:34:26.008Z,8.88
2022-12-23T11:37:03.707Z,8.87
2022-12-23T11:39:37.013Z,8.92
2022-12-23T11:42:06.728Z,8.85
2022-12-23T11:44:37.787Z,8.87
2022-12-23T11:47:41.706Z,8.84
2022-12-23T11:50:30.613Z,8.81
2022-12-23T11:53:24.664Z,8.79
2022-12-23T11:56:13.447Z,8.73
2022-12-23T11:58:55.450Z,8.71
2022-12-23T12:01:25.278Z,8.69
2022-12-23T12:04:07.437Z,8.61
2022-12-23T12:06:34.826Z,8.57
2022-12-23T12:09:05.156Z,8.53
2022-12-23T12:11:39.319Z,8.49
2022-12-23T12:14:08.584Z,8.45
2022-12-23T12:17:03.259Z,8.43
2022-12-23T12:20:04.941Z,8.39
2022-12-23T12:22:48.023Z,8.39
2022-12-23T12:25:36.377Z,8.38
2022-12-23T12:28:14.878Z,8.33
2022-12-23T12:30:56.759Z,8.33
2022-12-23T12:33:33.826Z,8.32
2022-12-23T12:36:46.276Z,8.29
2022-12-23T12:39:38.353Z,8.29
2022-12-23T12:42:40.329Z,8.26
2022-12-23T12:45:34.424Z,8.21
2022-12-23T12:48:22.639Z,8.22
2022-12-23T12:51:21.112Z,8.19
2022-12-23T12:54:13.736Z,8.14
2022-12-23T12:56:54.965Z,8.14
2022-12-23T12:59:27.582Z,8.12
2022-12-23T13:02:39.540Z,8.11
2022-12-23T13:05:32.521Z,8.07
2022-12-23T13:08:21.354Z,8.04
2022-12-23T13:11:13.674Z,8.02
2022-12-23T13:14:13.331Z,8.01
2022-12-23T13:17:02.809Z,7.98
2022-12-23T13:20:08.370Z,11.15
2022-12-23T13:22:35.138Z,11.52
2022-12-23T13:25:23.390Z,11.34
2022-12-23T13:27:58.627Z,12.75
2022-12-23T13:30:35.552Z,13.46
2022-12-23T13:33:11.508Z,12.51
2022-12-23T13:36:06.254Z,12.87
2022-12-23T13:39:17.856Z,11.10
2022-12-23T13:41:50.046Z,11.47
2022-12-23T13:44:18.767Z,12.23
2022-12-23T13:47:05.319Z,11.53
2022-12-23T13:49:40.680Z,10.06
2022-12-23T13:52:29.504Z,11.01
2022-12-23T13:55:08.588Z,10.52
2022-12-23T13:58:10.767Z,11.61
2022-12-23T14:00:37.523Z,11.56
2022-12-23T14:03:16.803Z,10.70
2022-12-23T14:05:46.660Z,8.52
2022-12-23T14:08:19.491Z,8.15
2022-12-23T14:11:00.688Z,8.05
2022-12-23T14:13:36.884Z,8.02
2022-12-23T14:16:37.826Z,8.01
2022-12-23T14:19:19.791Z,8.02
2022-12-23T14:22:32.951Z,8.00
2022-12-23T14:25:17.876Z,8.00
2022-12-23T14:27:55.810Z,8.04
2022-12-23T14:30:35.160Z,8.01
2022-12-23T14:33:27.376Z,8.09
2022-12-23T14:36:24.696Z,8.10
2022-12-23T14:39:13.330Z,8.06
2022-12-23T14:41:51.274Z,8.09
2022-12-23T14:44:23.834Z,8.13
2022-12-23T14:46:50.497Z,8.15
2022-12-23T14:49:43.985Z,8.26
2022-12-23T14:52:39.317Z,8.31
2022-12-23T14:55:31.722Z,8.38
2022-12-23T14:58:17.521Z,8.40
2022-12-23T15:00:51.518Z,8.44
2022-12-23T15:03:20.292Z,8.43
2022-12-23T15:05:47.554Z,8.43
2022-12-23T15:08:41.598Z,8.44
2022-12-23T15:11:17.862Z,8.43
2022-12-23T15:13:45.037Z,8.45
2022-12-23T15:16:17.685Z,8.49
2022-12-23T15:18:56.752Z,8.57
2022-12-23T15:21:36.157Z,8.69
2022-12-23T15:24:03.002Z,8.75
2022-12-23T15:26:32.959Z,8.91
2022-12-23T15:29:00.522Z,9.09
2022-12-23T15:31:33.460Z,9.26
2022-12-23T15:34:13.086Z,9.27
2022-12-23T15:36:44.452Z,9.46
2022-12-23T15:39:21.220Z,9.57
2022-12-23T15:41:48.805Z,9.69
2022-12-23T15:44:23.117Z,9.83
2022-12-23T15:46:50.536Z,9.99
2022-12-23T15:49:20.055Z,10.11
2022-12-23T15:52:13.816Z,10.32
2022-12-23T15:55:12.338Z,10.47
2022-12-23T15:57:49.975Z,10.84
2022-12-23T16:00:23.968Z,11.00
2022-12-23T16:03:02.357Z,11.00
2022-12-23T16:05:37.333Z,10.96
2022-12-23T16:08:16.355Z,11.08
2022-12-23T16:11:13.246Z,11.05
2022-12-23T16:13:46.678Z,11.00
2022-12-23T16:16:43.438Z,11.26
2022-12-23T16:19:46.159Z,11.26
2022-12-23T16:22:30.179Z,11.26
2022-12-23T16:24:56.788Z,11.17
2022-12-23T16:27:41.868Z,11.35
2022-12-23T16:30:19.547Z,11.13
2022-12-23T16:32:56.855Z,11.27
2022-12-23T16:35:37.033Z,11.12
2022-12-23T16:38:24.508Z,11.23
2022-12-23T16:40:57.082Z,11.24
2022-12-23T16:43:25.295Z,11.44
2022-12-23T16:45:56.127Z,11.31
2022-12-23T16:48:41.597Z,11.31
2022-12-23T16:51:14.262Z,11.28
2022-12-23T16:53:41.088Z,11.17
2022-12-23T16:56:20.374Z,11.17
2022-12-23T16:58:47.292Z,11.21
2022-12-23T17:01:30.852Z,11.19
2022-12-23T17:03:57.906Z,11.31
2022-12-23T17:06:25.764Z,11.16
2022-12-23T17:08:53.515Z,11.23
2022-12-23T17:11:24.712Z,11.22
2022-12-23T17:13:51.742Z,11.17
2022-12-23T17:16:24.334Z,11.08
2022-12-23T17:18:53.181Z,11.01
2022-12-23T17:21:26.287Z,11.05
2022-12-23T17:23:56.594Z,11.13
2022-12-23T17:26:23.356Z,10.99
2022-12-23T17:28:50.470Z,11.02
2022-12-23T17:31:26.614Z,10.99
2022-12-23T17:33:54.536Z,10.88
2022-12-23T17:36:21.368Z,10.76
2022-12-23T17:38:48.251Z,10.75
2022-12-23T17:41:29.359Z,10.84
2022-12-23T17:43:56.778Z,10.94
2022-12-23T17:46:23.897Z,10.84
2022-12-23T17:48:51.125Z,10.74
2022-12-23T17:51:21.704Z,10.73
2022-12-23T17:53:56.872Z,10.68
2022-12-23T17:56:24.967Z,10.46
2022-12-23T17:58:52.006Z,10.53
2022-12-23T18:01:29.632Z,10.50
2022-12-23T18:03:58.912Z,10.43
2022-12-23T18:06:28.623Z,10.41
2022-12-23T18:08:58.974Z,10.37
2022-12-23T18:11:41.779Z,10.47
2022-12-23T18:14:17.702Z,10.57
2022-12-23T18:16:44.539Z,10.39
2022-12-23T18:19:21.034Z,10.37
2022-12-23T18:21:48.106Z,10.31
2022-12-23T18:24:15.290Z,10.33
2022-12-23T18:26:42.140Z,10.49
2022-12-23T18:29:08.927Z,10.52
2022-12-23T18:31:37.411Z,10.38
2022-12-23T18:34:04.552Z,10.38
2022-12-23T18:36:35.959Z,10.39
2022-12-23T18:39:02.700Z,10.44
2022-12-23T18:41:29.348Z,10.39
2022-12-23T18:43:56.621Z,10.36
2022-12-23T18:46:23.345Z,10.43
2022-12-23T18:48:51.431Z,10.38
2022-12-23T18:51:21.097Z,10.38
2022-12-23T18:53:48.436Z,10.32
2022-12-23T18:56:19.247Z,10.32
2022-12-23T18:58:46.044Z,10.34
2022-12-23T19:01:15.298Z,10.41
2022-12-23T19:03:43.039Z,10.43
2022-12-23T19:06:13.827Z,10.38
2022-12-23T19:08:41.757Z,10.31
2022-12-23T19:11:20.509Z,10.33
2022-12-23T19:13:48.706Z,10.24
2022-12-23T19:16:21.094Z,10.49
2022-12-23T19:18:49.522Z,10.47
2022-12-23T19:21:18.256Z,10.62
2022-12-23T19:23:45.469Z,10.42
2022-12-23T19:26:14.890Z,10.33
2022-12-23T19:28:42.543Z,10.37
2022-12-23T19:31:15.302Z,10.36
2022-12-23T19:33:44.344Z,10.52
2022-12-23T19:36:12.501Z,10.53
2022-12-23T19:38:39.492Z,10.40
2022-12-23T19:41:09.913Z,10.37
2022-12-23T19:43:38.629Z,10.42
2022-12-23T19:46:08.775Z,10.35
2022-12-23T19:48:35.935Z,10.44
2022-12-23T19:51:05.488Z,10.38
2022-12-23T19:53:32.716Z,10.20
2022-12-23T19:56:07.682Z,10.18
2022-12-23T19:58:37.618Z,10.30
2022-12-23T20:01:23.967Z,10.28
2022-12-23T20:03:53.454Z,10.25
2022-12-23T20:06:30.860Z,10.16
2022-12-23T20:09:00.878Z,10.09
2022-12-23T20:11:49.115Z,10.15
2022-12-23T20:14:21.843Z,10.07
2022-12-23T20:16:49.404Z,10.12
2022-12-23T20:19:18.973Z,10.19
2022-12-23T20:21:46.529Z,10.11
2022-12-23T20:24:15.098Z,10.16
2022-12-23T20:26:42.545Z,10.12
2022-12-23T20:29:10.093Z,10.14
2022-12-23T20:31:38.839Z,10.06
2022-12-23T20:34:08.491Z,10.14
2022-12-23T20:36:36.933Z,10.17
2022-12-23T20:39:05.273Z,10.14
2022-12-23T20:41:34.056Z,10.13
2022-12-23T20:44:33.047Z,10.15
2022-12-23T20:46:49.488Z,10.17
2022-12-23T20:49:16.293Z,10.17
2022-12-23T20:51:42.993Z,10.15
2022-12-23T20:54:09.761Z,10.23
2022-12-23T20:56:36.550Z,10.28
2022-12-23T20:59:03.993Z,10.36
2022-12-23T21:01:40.146Z,10.34
2022-12-23T21:04:11.946Z,10.23
2022-12-23T21:06:54.176Z,10.14
2022-12-23T21:09:20.856Z,10.18
2022-12-23T21:11:48.773Z,10.15
2022-12-23T21:14:16.076Z,10.10
2022-12-23T21:16:43.266Z,10.28
2022-12-23T21:19:16.977Z,10.19
2022-12-23T21:21:44.244Z,10.29
2022-12-23T21:24:11.302Z,10.25
2022-12-23T21:26:38.431Z,10.18
2022-12-23T21:29:07.855Z,10.12
2022-12-23T21:31:39.060Z,9.95
2022-12-23T21:34:07.025Z,9.84
2022-12-23T21:36:38.865Z,9.89
2022-12-23T21:39:08.043Z,9.79
2022-12-23T21:41:38.719Z,9.82
2022-12-23T21:44:05.992Z,9.79
2022-12-23T21:46:33.724Z,9.70
2022-12-23T21:49:00.648Z,9.78
2022-12-23T21:51:38.975Z,9.76
2022-12-23T21:54:07.037Z,9.67
2022-12-23T21:56:33.954Z,9.79
2022-12-23T21:59:04.914Z,9.87
2022-12-23T22:01:34.618Z,9.81
2022-12-23T22:04:01.630Z,9.85
2022-12-23T22:06:39.086Z,9.86
2022-12-23T22:09:07.664Z,10.02
2022-12-23T22:11:36.500Z,9.95
2022-12-23T22:14:06.380Z,9.92
2022-12-23T22:16:35.183Z,9.82
2022-12-23T22:19:04.358Z,9.88
2022-12-23T22:21:33.221Z,9.84
2022-12-23T22:24:00.155Z,9.91
2022-12-23T22:26:31.519Z,9.94
2022-12-23T22:29:02.420Z,9.94
2022-12-23T22:31:47.047Z,9.96
2022-12-23T22:34:19.993Z,9.97
2022-12-23T22:36:48.197Z,10.01
2022-12-23T22:39:21.099Z,10.08
2022-12-23T22:41:50.939Z,10.11
2022-12-23T22:44:18.650Z,10.04
2022-12-23T22:46:45.476Z,10.10
2022-12-23T22:49:13.453Z,10.06
2022-12-23T22:51:41.879Z,10.10
2022-12-23T22:54:09.059Z,10.08
2022-12-23T22:56:36.319Z,10.10
2022-12-23T22:59:03.140Z,10.09
2022-12-23T23:01:33.671Z,10.04
2022-12-23T23:04:02.865Z,10.08
2022-12-23T23:06:34.286Z,10.04
2022-12-23T23:09:01.444Z,10.00
2022-12-23T23:11:29.177Z,10.01
2022-12-23T23:13:56.561Z,10.02
2022-12-23T23:16:25.261Z,9.98
2022-12-23T23:18:53.731Z,10.01
2022-12-23T23:21:21.687Z,9.97
2022-12-23T23:23:49.773Z,9.99
2022-12-23T23:26:17.785Z,9.88
2022-12-23T23:28:45.086Z,9.95
2022-12-23T23:33:58.967Z,9.84
2022-12-23T23:36:25.931Z,9.83
2022-12-23T23:38:52.628Z,9.89
2022-12-23T23:41:23.231Z,9.89
2022-12-23T23:43:51.892Z,9.86
2022-12-23T23:46:18.750Z,9.84
2022-12-23T23:48:45.641Z,9.74
2022-12-23T23:51:12.738Z,9.85
2022-12-23T23:53:40.191Z,9.80
2022-12-23T23:56:08.361Z,9.78
2022-12-23T23:58:36.837Z,9.76
